createdAt,value
2018-12-23T00:01:50.768Z,101444.89
2018-12-23T00:04:19.094Z,101447.42
2018-12-23T00:06:48.424Z,101445.47
2018-12-23T00:09:16.712Z,101449.22
2018-12-23T00:11:45.092Z,101455.80
2018-12-23T00:14:12.448Z,101455.38
2018-12-23T00:16:39.681Z,101455.47
2018-12-23T00:19:06.917Z,101450.23
2018-12-23T00:21:34.385Z,101457.59
2018-12-23T00:24:01.661Z,101453.13
2018-12-23T00:26:28.892Z,101452.66
2018-12-23T00:28:56.147Z,101448.20
2018-12-23T00:31:23.372Z,101458.72
2018-12-23T00:33:50.596Z,101452.00
2018-12-23T00:36:17.850Z,101453.71
2018-12-23T00:38:45.138Z,101448.03
2018-12-23T00:41:13.516Z,101450.91
2018-12-23T00:43:40.777Z,101444.19
2018-12-23T00:46:09.042Z,101444.76
2018-12-23T00:48:36.388Z,101452.59
2018-12-23T00:51:03.646Z,101451.11
2018-12-23T00:53:30.864Z,101448.11
2018-12-23T00:55:59.180Z,101446.64
2018-12-23T00:58:26.396Z,101443.27
2018-12-23T01:00:54.714Z,101445.23
2018-12-23T01:03:21.948Z,101444.41
2018-12-23T01:05:49.197Z,101444.38
2018-12-23T01:08:16.472Z,101446.44
2018-12-23T01:10:45.253Z,101447.11
2018-12-23T01:13:12.476Z,101446.16
2018-12-23T01:15:39.728Z,101446.41
2018-12-23T01:18:06.960Z,101448.26
2018-12-23T01:20:34.204Z,101438.97
2018-12-23T01:23:01.432Z,101438.97
2018-12-23T01:25:28.668Z,101433.22
2018-12-23T01:27:55.895Z,101429.30
2018-12-23T01:30:23.162Z,101432.45
2018-12-23T01:32:50.421Z,101436.66
2018-12-23T01:35:17.680Z,101435.36
2018-12-23T01:37:44.925Z,101432.84
2018-12-23T01:40:12.188Z,101426.78
2018-12-23T01:42:39.452Z,101427.90
2018-12-23T01:45:06.844Z,101436.00
2018-12-23T01:47:34.080Z,101430.86
2018-12-23T01:50:02.435Z,101430.70
2018-12-23T01:52:29.650Z,101435.62
2018-12-23T01:54:56.896Z,101427.05
2018-12-23T01:57:24.125Z,101429.67
2018-12-23T01:59:51.366Z,101431.89
2018-12-23T02:02:20.701Z,101432.09
2018-12-23T02:04:47.948Z,101426.13
2018-12-23T02:07:15.203Z,101419.60
2018-12-23T02:09:42.459Z,101418.51
2018-12-23T02:12:09.704Z,101420.18
2018-12-23T02:14:36.952Z,101416.43
2018-12-23T02:17:04.192Z,101419.97
2018-12-23T02:19:31.437Z,101411.61
2018-12-23T02:21:58.696Z,101408.44
2018-12-23T02:24:25.948Z,101423.87
2018-12-23T02:26:53.176Z,101407.24
2018-12-23T02:29:20.420Z,101409.09
2018-12-23T02:31:47.652Z,101413.30
2018-12-23T02:34:14.920Z,101417.21
2018-12-23T02:36:43.586Z,101418.14
2018-12-23T02:39:10.832Z,101418.04
2018-12-23T02:41:38.066Z,101411.80
2018-12-23T02:44:05.364Z,101419.53
2018-12-23T02:46:32.619Z,101408.44
2018-12-23T02:48:59.848Z,101425.39
2018-12-23T02:51:28.126Z,101415.51
2018-12-23T02:53:55.371Z,101414.22
2018-12-23T02:56:22.607Z,101412.90
2018-12-23T02:58:49.831Z,101413.18
2018-12-23T03:01:17.064Z,101405.86
2018-12-23T03:03:44.285Z,101415.16
2018-12-23T03:06:11.536Z,101411.24
2018-12-23T03:08:39.864Z,101406.22
2018-12-23T03:11:07.102Z,101410.30
2018-12-23T03:13:34.428Z,101403.04
2018-12-23T03:16:01.670Z,101402.58
2018-12-23T03:18:28.884Z,101405.84
2018-12-23T03:20:56.108Z,101408.98
2018-12-23T03:23:23.344Z,101414.04
2018-12-23T03:25:50.563Z,101405.29
2018-12-23T03:28:17.762Z,101400.90
2018-12-23T03:30:44.986Z,101402.11
2018-12-23T03:33:12.334Z,101395.03
2018-12-23T03:35:39.559Z,101393.92
2018-12-23T03:38:06.761Z,101390.38
2018-12-23T03:40:33.984Z,101394.50
2018-12-23T03:43:01.207Z,101388.34
2018-12-23T03:45:28.436Z,101390.95
2018-12-23T03:47:55.648Z,101379.75
2018-12-23T03:50:22.864Z,101392.34
2018-12-23T03:52:50.078Z,101392.05
2018-12-23T03:55:17.301Z,101391.48
2018-12-23T03:57:44.630Z,101390.20
2018-12-23T04:00:11.878Z,101396.34
2018-12-23T04:02:39.080Z,101385.36
2018-12-23T04:05:06.284Z,101400.71
2018-12-23T04:07:33.557Z,101389.75
2018-12-23T04:10:00.776Z,101385.27
2018-12-23T04:12:27.970Z,101384.23
2018-12-23T04:14:55.183Z,101385.53
2018-12-23T04:17:22.521Z,101392.25
2018-12-23T04:19:49.733Z,101390.75
2018-12-23T04:22:16.985Z,101397.73
2018-12-23T04:24:44.188Z,101387.41
2018-12-23T04:27:11.414Z,101392.63
2018-12-23T04:29:38.912Z,101392.35
2018-12-23T04:32:06.263Z,101389.28
2018-12-23T04:34:34.500Z,101386.30
2018-12-23T04:37:01.709Z,101389.45
2018-12-23T04:39:28.921Z,101385.73
2018-12-23T04:41:56.138Z,101384.80
2018-12-23T04:44:23.338Z,101391.12
2018-12-23T04:46:50.660Z,101374.94
2018-12-23T04:49:17.888Z,101380.42
2018-12-23T04:51:45.104Z,101381.63
2018-12-23T04:54:12.304Z,101378.08
2018-12-23T04:56:40.871Z,101389.08
2018-12-23T04:59:08.091Z,101391.48
2018-12-23T05:01:36.569Z,101387.78
2018-12-23T05:04:03.866Z,101389.28
2018-12-23T05:06:31.071Z,101383.77
2018-12-23T05:08:58.279Z,101388.88
2018-12-23T05:11:25.507Z,101382.09
2018-12-23T05:13:52.720Z,101381.26
2018-12-23T05:16:20.986Z,101381.72
2018-12-23T05:18:48.188Z,101383.66
2018-12-23T05:21:15.417Z,101380.52
2018-12-23T05:23:42.632Z,101378.48
2018-12-23T05:26:09.849Z,101383.97
2018-12-23T05:28:37.116Z,101394.30
2018-12-23T05:31:04.346Z,101392.79
2018-12-23T05:33:31.536Z,101391.69
2018-12-23T05:35:58.748Z,101395.33
2018-12-23T05:38:25.950Z,101391.42
2018-12-23T05:40:53.168Z,101384.59
2018-12-23T05:43:20.354Z,101385.53
2018-12-23T05:45:47.569Z,101393.36
2018-12-23T05:48:18.662Z,101393.36
2018-12-23T05:50:45.884Z,101400.25
2018-12-23T05:53:13.080Z,101391.32
2018-12-23T05:55:40.320Z,101398.41
2018-12-23T05:58:07.588Z,101397.66
2018-12-23T06:00:34.800Z,101400.64
2018-12-23T06:03:01.992Z,101394.13
2018-12-23T06:05:29.202Z,101395.03
2018-12-23T06:07:56.400Z,101409.77
2018-12-23T06:10:23.612Z,101402.13
2018-12-23T06:12:50.812Z,101399.70
2018-12-23T06:15:18.025Z,101403.63
2018-12-23T06:17:45.249Z,101408.37
2018-12-23T06:20:12.469Z,101406.96
2018-12-23T06:22:39.692Z,101411.98
2018-12-23T06:25:07.933Z,101415.45
2018-12-23T06:27:35.136Z,101416.54
2018-12-23T06:30:02.605Z,101414.05
2018-12-23T06:32:29.828Z,101417.03
2018-12-23T06:34:57.036Z,101416.27
2018-12-23T06:37:24.270Z,101419.91
2018-12-23T06:39:51.476Z,101426.16
2018-12-23T06:42:18.684Z,101422.98
2018-12-23T06:44:45.944Z,101418.70
2018-12-23T06:47:13.179Z,101422.03
2018-12-23T06:49:40.396Z,101423.80
2018-12-23T06:52:07.614Z,101423.45
2018-12-23T06:54:34.844Z,101419.34
2018-12-23T06:57:02.050Z,101432.67
2018-12-23T06:59:29.272Z,101423.91
2018-12-23T07:01:56.584Z,101422.61
2018-12-23T07:04:23.900Z,101429.67
2018-12-23T07:06:51.109Z,101429.39
2018-12-23T07:09:18.341Z,101431.62
2018-12-23T07:11:45.555Z,101424.38
2018-12-23T07:14:12.755Z,101437.28
2018-12-23T07:16:40.020Z,101423.42
2018-12-23T07:19:07.549Z,101428.45
2018-12-23T07:21:34.748Z,101425.19
2018-12-23T07:24:02.109Z,101437.48
2018-12-23T07:26:29.325Z,101438.75
2018-12-23T07:28:56.600Z,101437.11
2018-12-23T07:31:23.852Z,101435.42
2018-12-23T07:33:51.064Z,101435.58
2018-12-23T07:36:18.273Z,101435.80
2018-12-23T07:38:45.487Z,101429.75
2018-12-23T07:41:12.676Z,101434.77
2018-12-23T07:43:39.889Z,101438.03
2018-12-23T07:46:07.222Z,101434.79
2018-12-23T07:48:34.445Z,101439.23
2018-12-23T07:51:01.800Z,101437.50
2018-12-23T07:53:29.127Z,101442.89
2018-12-23T07:55:56.332Z,101447.36
2018-12-23T07:58:23.539Z,101440.42
2018-12-23T08:00:50.764Z,101442.28
2018-12-23T08:03:17.989Z,101441.91
2018-12-23T08:05:45.276Z,101442.09
2018-12-23T08:08:12.487Z,101441.74
2018-12-23T08:10:39.724Z,101445.48
2018-12-23T08:13:07.006Z,101449.40
2018-12-23T08:15:34.277Z,101442.09
2018-12-23T08:18:01.496Z,101441.41
2018-12-23T08:20:28.829Z,101457.60
2018-12-23T08:22:56.016Z,101449.62
2018-12-23T08:25:23.228Z,101448.48
2018-12-23T08:27:50.421Z,101444.05
2018-12-23T08:30:17.636Z,101450.89
2018-12-23T08:32:44.864Z,101455.78
2018-12-23T08:35:12.076Z,101451.64
2018-12-23T08:37:44.581Z,101447.39
2018-12-23T08:40:08.500Z,101449.91
2018-12-23T08:42:35.724Z,101446.25
2018-12-23T08:45:03.189Z,101448.69
2018-12-23T08:47:30.393Z,101447.39
2018-12-23T08:49:57.603Z,101436.02
2018-12-23T08:52:24.810Z,101442.55
2018-12-23T08:54:52.001Z,101437.97
2018-12-23T08:57:19.216Z,101433.52
2018-12-23T08:59:46.413Z,101452.97
2018-12-23T09:02:13.629Z,101448.31
2018-12-23T09:04:41.048Z,101441.44
2018-12-23T09:07:08.240Z,101433.42
2018-12-23T09:09:35.600Z,101432.28
2018-12-23T09:12:03.031Z,101437.33
2018-12-23T09:14:30.236Z,101443.45
2018-12-23T09:16:57.476Z,101425.96
2018-12-23T09:19:24.773Z,101437.60
2018-12-23T09:21:52.980Z,101441.23
2018-12-23T09:24:20.536Z,101448.88
2018-12-23T09:26:47.876Z,101439.64
2018-12-23T09:29:15.080Z,101441.14
2018-12-23T09:31:42.316Z,101441.98
2018-12-23T09:34:09.568Z,101445.70
2018-12-23T09:36:36.925Z,101450.91
2018-12-23T09:39:05.604Z,101442.33
2018-12-23T09:41:32.819Z,101448.77
2018-12-23T09:44:00.031Z,101441.24
2018-12-23T09:46:27.259Z,101431.91
2018-12-23T09:48:54.489Z,101427.27
2018-12-23T09:51:22.711Z,101430.61
2018-12-23T09:53:49.915Z,101428.84
2018-12-23T09:56:17.141Z,101425.59
2018-12-23T09:59:01.297Z,101432.65
2018-12-23T10:01:28.648Z,101438.70
2018-12-23T10:03:55.848Z,101429.09
2018-12-23T10:06:23.083Z,101437.70
2018-12-23T10:08:50.298Z,101427.27
2018-12-23T10:11:17.519Z,101424.28
2018-12-23T10:13:44.744Z,101422.69
2018-12-23T10:16:12.070Z,101430.61
2018-12-23T10:18:39.385Z,101421.31
2018-12-23T10:21:06.604Z,101421.21
2018-12-23T10:23:33.808Z,101423.41
2018-12-23T10:26:01.177Z,101423.41
2018-12-23T10:28:28.395Z,101426.53
2018-12-23T10:30:55.600Z,101423.34
2018-12-23T10:33:22.864Z,101416.63
2018-12-23T10:35:50.064Z,101413.48
2018-12-23T10:38:18.482Z,101406.86
2018-12-23T10:40:46.100Z,101405.19
2018-12-23T10:43:13.340Z,101415.72
2018-12-23T10:45:40.969Z,101413.21
2018-12-23T10:48:08.197Z,101419.07
2018-12-23T10:50:35.512Z,101400.45
2018-12-23T10:53:02.736Z,101404.56
2018-12-23T10:55:30.072Z,101401.37
2018-12-23T10:57:57.416Z,101394.86
2018-12-23T11:00:24.616Z,101399.52
2018-12-23T11:02:51.949Z,101401.55
2018-12-23T11:05:19.289Z,101396.73
2018-12-23T11:07:46.512Z,101390.38
2018-12-23T11:10:13.713Z,101400.72
2018-12-23T11:12:41.048Z,101382.92
2018-12-23T11:15:08.004Z,101376.77
2018-12-23T11:17:35.330Z,101378.64
2018-12-23T11:20:02.596Z,101374.27
2018-12-23T11:22:29.812Z,101368.31
2018-12-23T11:24:57.036Z,101374.53
2018-12-23T11:27:24.370Z,101363.73
2018-12-23T11:29:51.576Z,101370.39
2018-12-23T11:32:18.788Z,101349.22
2018-12-23T11:34:46.021Z,101360.03
2018-12-23T11:37:13.360Z,101361.09
2018-12-23T11:39:40.560Z,101355.55
2018-12-23T11:42:07.932Z,101360.73
2018-12-23T11:44:35.143Z,101361.36
2018-12-23T11:47:02.352Z,101356.00
2018-12-23T11:49:29.714Z,101353.30
2018-12-23T11:51:56.931Z,101356.83
2018-12-23T11:54:24.150Z,101344.74
2018-12-23T11:56:51.392Z,101355.05
2018-12-23T11:59:18.593Z,101343.44
2018-12-23T12:01:45.833Z,101342.23
2018-12-23T12:04:13.065Z,101345.27
2018-12-23T12:06:40.260Z,101348.66
2018-12-23T12:09:07.798Z,101345.47
2018-12-23T12:11:36.231Z,101346.67
2018-12-23T12:14:03.552Z,101343.05
2018-12-23T12:16:30.781Z,101346.27
2018-12-23T12:18:58.014Z,101343.31
2018-12-23T12:21:25.233Z,101352.44
2018-12-23T12:23:52.470Z,101349.39
2018-12-23T12:26:19.676Z,101356.70
2018-12-23T12:28:46.884Z,101345.95
2018-12-23T12:31:14.124Z,101349.46
2018-12-23T12:33:41.373Z,101344.89
2018-12-23T12:36:08.585Z,101347.83
2018-12-23T12:38:36.006Z,101351.95
2018-12-23T12:41:03.521Z,101348.31
2018-12-23T12:43:30.864Z,101343.59
2018-12-23T12:46:00.697Z,101341.19
2018-12-23T12:48:27.320Z,101342.17
2018-12-23T12:50:54.553Z,101341.16
2018-12-23T12:53:21.770Z,101344.70
2018-12-23T12:55:49.140Z,101348.04
2018-12-23T12:58:16.652Z,101337.20
2018-12-23T13:00:43.869Z,101346.51
2018-12-23T13:03:11.217Z,101346.39
2018-12-23T13:05:38.469Z,101342.48
2018-12-23T13:08:06.048Z,101347.12
2018-12-23T13:10:33.333Z,101344.27
2018-12-23T13:13:00.543Z,101346.42
2018-12-23T13:15:27.907Z,101347.56
2018-12-23T13:17:55.160Z,101349.59
2018-12-23T13:20:22.383Z,101345.79
2018-12-23T13:22:50.117Z,101340.67
2018-12-23T13:25:34.436Z,101337.86
2018-12-23T13:28:01.636Z,101342.81
2018-12-23T13:30:28.859Z,101348.66
2018-12-23T13:32:56.408Z,101344.22
2018-12-23T13:35:23.623Z,101341.51
2018-12-23T13:37:50.861Z,101335.45
2018-12-23T13:40:27.836Z,101349.33
2018-12-23T13:44:07.186Z,101351.27
2018-12-23T13:47:03.044Z,101348.30
2018-12-23T13:49:41.860Z,101353.69
2018-12-23T13:52:17.173Z,101341.51
2018-12-23T13:54:55.420Z,101343.08
2018-12-23T13:58:32.525Z,101341.14
2018-12-23T14:01:38.791Z,101346.61
2018-12-23T14:04:52.605Z,101345.23
2018-12-23T14:07:58.888Z,101343.75
2018-12-23T14:11:05.433Z,101333.22
2018-12-23T14:13:32.890Z,101335.36
2018-12-23T14:16:20.051Z,101335.26
2018-12-23T14:18:47.794Z,101329.58
2018-12-23T14:21:19.251Z,101337.03
2018-12-23T14:24:06.677Z,101336.39
2018-12-23T14:26:34.146Z,101343.08
2018-12-23T14:29:21.887Z,101336.56
2018-12-23T14:32:21.170Z,101326.50
2018-12-23T14:35:01.301Z,101319.09
2018-12-23T14:49:54.184Z,101309.86
2018-12-23T14:52:41.366Z,101309.29
2018-12-23T14:55:28.843Z,101306.41
2018-12-23T14:58:15.957Z,101314.34
2018-12-23T15:03:56.770Z,101307.16
2018-12-23T15:09:57.684Z,101306.97
2018-12-23T15:12:44.582Z,101296.93
2018-12-23T15:15:12.372Z,101305.20
2018-12-23T15:20:21.079Z,101303.69
2018-12-23T15:22:48.928Z,101296.55
2018-12-23T15:25:16.654Z,101298.23
2018-12-23T15:27:44.471Z,101289.10
2018-12-23T15:30:31.899Z,101295.62
2018-12-23T15:36:20.257Z,101290.21
2018-12-23T15:39:07.371Z,101283.53
2018-12-23T15:45:08.155Z,101280.73
2018-12-23T15:56:50.784Z,101270.84
2018-12-23T16:02:50.818Z,101270.48
2018-12-23T16:05:38.479Z,101269.83
2018-12-23T16:11:26.440Z,101265.66
2018-12-23T16:19:38.372Z,101259.14
2018-12-23T16:25:07.073Z,101257.00
2018-12-23T16:31:08.561Z,101264.92
2018-12-23T16:33:55.746Z,101274.41
2018-12-23T16:36:36.290Z,101271.95
2018-12-23T16:39:37.048Z,101275.13
2018-12-23T16:42:16.906Z,101277.36
2018-12-23T16:44:56.696Z,101279.58
2018-12-23T16:47:44.190Z,101283.67
2018-12-23T16:50:31.396Z,101281.42
2018-12-23T16:53:05.426Z,101284.04
2018-12-23T17:04:10.178Z,101279.58
2018-12-23T17:15:42.492Z,101289.08
2018-12-23T17:24:10.500Z,101291.63
2018-12-23T17:26:57.997Z,101288.81
2018-12-23T17:29:45.459Z,101288.33
2018-12-23T17:35:25.050Z,101291.20
2018-12-23T17:38:11.898Z,101294.63
2018-12-23T17:49:22.486Z,101288.92
2018-12-23T17:52:23.354Z,101292.91
2018-12-23T17:55:03.599Z,101286.69
2018-12-23T18:09:56.601Z,101292.44
2018-12-23T18:12:24.574Z,101295.50
2018-12-23T18:14:52.783Z,101294.84
2018-12-23T18:20:41.065Z,101296.39
2018-12-23T18:23:20.897Z,101294.27
2018-12-23T18:26:08.796Z,101293.17
2018-12-23T18:31:18.374Z,101276.59
2018-12-23T18:33:58.642Z,101292.19
2018-12-23T18:39:47.315Z,101290.72
2018-12-23T18:42:34.685Z,101290.19
2018-12-23T18:48:36.021Z,101293.34
2018-12-23T18:51:16.304Z,101297.97
2018-12-23T18:54:03.708Z,101299.99
2018-12-23T18:57:04.537Z,101303.16
2018-12-23T19:02:55.439Z,101303.39
2018-12-23T19:05:42.667Z,101303.95
2018-12-23T19:11:53.215Z,101314.72
2018-12-23T19:14:59.742Z,101322.82
2018-12-23T19:18:06.326Z,101322.58
2018-12-23T19:21:12.814Z,101324.34
2018-12-23T19:24:26.731Z,101333.78
2018-12-23T19:27:33.994Z,101341.12
2018-12-23T19:30:37.231Z,101336.78
2018-12-23T19:33:43.439Z,101340.70
2018-12-23T19:36:49.981Z,101343.86
2018-12-23T19:39:29.637Z,101350.12
2018-12-23T19:42:36.089Z,101354.53
2018-12-23T19:45:30.234Z,101351.56
2018-12-23T19:48:36.734Z,101359.23
2018-12-23T19:51:43.205Z,101365.41
2018-12-23T19:54:45.092Z,101363.33
2018-12-23T19:57:51.347Z,101373.91
2018-12-23T20:00:57.692Z,101371.92
2018-12-23T20:04:04.156Z,101374.28
2018-12-23T20:07:20.809Z,101372.52
2018-12-23T20:10:29.655Z,101377.81
2018-12-23T21:40:16.172Z,101486.82
2018-12-23T21:43:17.703Z,101487.49
2018-12-23T21:46:35.747Z,101498.06
2018-12-23T21:49:43.346Z,101497.30
2018-12-23T21:52:58.829Z,101499.86
2018-12-23T21:55:58.089Z,101508.14
2018-12-23T21:59:21.322Z,101515.05
2018-12-23T22:02:25.615Z,101519.75
2018-12-23T22:05:46.565Z,101514.80
2018-12-23T22:09:00.318Z,101522.24
2018-12-23T22:12:15.031Z,101523.95
2018-12-23T22:14:42.322Z,101532.89
2018-12-23T22:17:11.082Z,101535.76
2018-12-23T22:19:38.534Z,101542.71
2018-12-23T22:22:05.553Z,101539.05
2018-12-23T22:24:32.561Z,101545.71
2018-12-23T22:27:00.077Z,101554.64
2018-12-23T22:29:27.604Z,101555.51
2018-12-23T22:31:55.063Z,101558.77
2018-12-23T22:34:22.842Z,101556.58
2018-12-23T22:36:51.378Z,101568.59
2018-12-23T22:39:18.995Z,101571.78
2018-12-23T22:41:47.072Z,101576.98
2018-12-23T22:44:14.529Z,101573.27
2018-12-23T22:46:41.550Z,101581.01
2018-12-23T22:49:08.598Z,101581.42
2018-12-23T22:51:35.978Z,101591.42
2018-12-23T22:54:04.040Z,101597.06
2018-12-23T22:56:31.612Z,101594.42
2018-12-23T22:58:59.039Z,101599.61
2018-12-23T23:01:27.546Z,101599.64
2018-12-23T23:03:55.309Z,101604.66
2018-12-23T23:06:23.487Z,101604.16
2018-12-23T23:08:51.146Z,101606.75
2018-12-23T23:11:18.514Z,101614.03
2018-12-23T23:13:45.854Z,101621.92
2018-12-23T23:16:14.170Z,101622.27
2018-12-23T23:18:41.833Z,101624.33
2018-12-23T23:21:09.148Z,101632.41
2018-12-23T23:23:36.821Z,101634.09
2018-12-23T23:26:04.370Z,101634.07
2018-12-23T23:28:31.548Z,101642.55
2018-12-23T23:30:59.280Z,101640.80
2018-12-23T23:33:27.389Z,101639.67
2018-12-23T23:35:54.710Z,101647.36
2018-12-23T23:38:22.062Z,101642.25
2018-12-23T23:40:49.066Z,101651.36
2018-12-23T23:43:16.083Z,101655.59
2018-12-23T23:45:43.116Z,101663.78
2018-12-23T23:48:10.602Z,101661.84
2018-12-23T23:50:37.828Z,101662.41
2018-12-23T23:53:06.907Z,101679.55
2018-12-23T23:55:34.263Z,101676.80
2018-12-23T23:58:01.645Z,101684.20
